sensor_id;sensor_type;location;lat;lon;timestamp;pressure;altitude;pressure_sealevel;temperature;humidity
47556;BME280;33291;46.222;26.460;2023-06-10T00:01:44;96146.84;;;14.85;72.61
47556;BME280;33291;46.222;26.460;2023-06-10T00:04:15;96172.84;;;14.95;73.04
47556;BME280;33291;46.222;26.460;2023-06-10T00:06:45;96163.69;;;14.90;73.61
47556;BME280;33291;46.222;26.460;2023-06-10T00:09:13;96175.28;;;14.96;73.49
47556;BME280;33291;46.222;26.460;2023-06-10T00:11:40;96170.84;;;14.97;73.88
47556;BME280;33291;46.222;26.460;2023-06-10T00:14:06;96170.84;;;14.97;73.91
47556;BME280;33291;46.222;26.460;2023-06-10T00:16:31;96169.25;;;14.96;73.80
47556;BME280;33291;46.222;26.460;2023-06-10T00:19:00;96172.50;;;14.98;74.29
47556;BME280;33291;46.222;26.460;2023-06-10T00:21:30;96160.88;;;14.92;74.07
47556;BME280;33291;46.222;26.460;2023-06-10T00:24:11;96173.13;;;15.00;74.22
47556;BME280;33291;46.222;26.460;2023-06-10T00:26:41;96171.34;;;15.00;73.87
47556;BME280;33291;46.222;26.460;2023-06-10T00:29:07;96171.97;;;15.02;74.29
47556;BME280;33291;46.222;26.460;2023-06-10T00:31:37;96171.78;;;15.04;74.26
47556;BME280;33291;46.222;26.460;2023-06-10T00:34:02;96154.31;;;14.96;74.34
47556;BME280;33291;46.222;26.460;2023-06-10T00:36:28;96163.66;;;14.99;74.14
47556;BME280;33291;46.222;26.460;2023-06-10T00:38:54;96167.44;;;14.96;74.27
47556;BME280;33291;46.222;26.460;2023-06-10T00:41:19;96167.50;;;14.88;74.35
47556;BME280;33291;46.222;26.460;2023-06-10T00:43:45;96165.00;;;14.86;74.31
47556;BME280;33291;46.222;26.460;2023-06-10T00:46:11;96168.28;;;14.88;74.42
47556;BME280;33291;46.222;26.460;2023-06-10T00:48:37;96158.50;;;14.82;74.61
47556;BME280;33291;46.222;26.460;2023-06-10T00:51:05;96139.63;;;14.64;74.89
47556;BME280;33291;46.222;26.460;2023-06-10T00:53:30;96162.91;;;14.82;74.90
47556;BME280;33291;46.222;26.460;2023-06-10T00:55:57;96161.31;;;14.81;74.82
47556;BME280;33291;46.222;26.460;2023-06-10T01:01:45;96165.53;;;14.82;75.13
47556;BME280;33291;46.222;26.460;2023-06-10T01:08:03;96160.69;;;14.70;75.95
47556;BME280;33291;46.222;26.460;2023-06-10T01:13:01;96160.69;;;14.70;75.66
47556;BME280;33291;46.222;26.460;2023-06-10T01:15:34;96161.34;;;14.72;75.69
47556;BME280;33291;46.222;26.460;2023-06-10T01:18:01;96153.81;;;14.69;75.55
47556;BME280;33291;46.222;26.460;2023-06-10T01:20:28;96157.09;;;14.71;75.67
47556;BME280;33291;46.222;26.460;2023-06-10T01:22:55;96157.44;;;14.68;75.86
47556;BME280;33291;46.222;26.460;2023-06-10T01:25:23;96156.16;;;14.64;75.90
47556;BME280;33291;46.222;26.460;2023-06-10T01:27:54;96151.25;;;14.61;76.02
47556;BME280;33291;46.222;26.460;2023-06-10T01:30:27;96138.16;;;14.53;76.08
47556;BME280;33291;46.222;26.460;2023-06-10T01:32:55;96139.78;;;14.54;76.06
47556;BME280;33291;46.222;26.460;2023-06-10T01:35:25;96148.28;;;14.56;76.34
47556;BME280;33291;46.222;26.460;2023-06-10T01:37:53;96144.06;;;14.55;76.14
47556;BME280;33291;46.222;26.460;2023-06-10T01:40:20;96137.84;;;14.48;76.38
47556;BME280;33291;46.222;26.460;2023-06-10T01:42:46;96151.06;;;14.54;76.35
47556;BME280;33291;46.222;26.460;2023-06-10T01:45:11;96159.13;;;14.53;76.49
47556;BME280;33291;46.222;26.460;2023-06-10T01:47:37;96148.34;;;14.48;76.65
47556;BME280;33291;46.222;26.460;2023-06-10T01:50:03;96128.13;;;14.33;76.68
47556;BME280;33291;46.222;26.460;2023-06-10T01:52:28;96156.84;;;14.50;76.59
47556;BME280;33291;46.222;26.460;2023-06-10T01:54:53;96153.28;;;14.43;77.08
47556;BME280;33291;46.222;26.460;2023-06-10T01:57:19;96150.34;;;14.37;77.20
47556;BME280;33291;46.222;26.460;2023-06-10T01:59:44;96149.88;;;14.34;77.38
47556;BME280;33291;46.222;26.460;2023-06-10T02:02:11;96140.91;;;14.28;77.42
47556;BME280;33291;46.222;26.460;2023-06-10T02:04:37;96151.53;;;14.35;77.52
47556;BME280;33291;46.222;26.460;2023-06-10T02:07:02;96122.94;;;14.17;77.71
47556;BME280;33291;46.222;26.460;2023-06-10T02:09:30;96148.75;;;14.28;77.96
47556;BME280;33291;46.222;26.460;2023-06-10T02:11:55;96158.25;;;14.29;78.06
47556;BME280;33291;46.222;26.460;2023-06-10T02:14:21;96152.69;;;14.32;78.22
47556;BME280;33291;46.222;26.460;2023-06-10T02:16:46;96167.59;;;14.32;78.19
47556;BME280;33291;46.222;26.460;2023-06-10T02:19:13;96161.69;;;14.30;78.63
47556;BME280;33291;46.222;26.460;2023-06-10T02:21:39;96160.25;;;14.27;78.37
47556;BME280;33291;46.222;26.460;2023-06-10T02:24:05;96155.16;;;14.26;78.53
47556;BME280;33291;46.222;26.460;2023-06-10T02:26:30;96167.44;;;14.25;78.65
47556;BME280;33291;46.222;26.460;2023-06-10T02:28:57;96180.03;;;14.30;78.84
47556;BME280;33291;46.222;26.460;2023-06-10T02:31:22;96178.41;;;14.29;79.09
47556;BME280;33291;46.222;26.460;2023-06-10T02:33:49;96170.88;;;14.26;79.20
47556;BME280;33291;46.222;26.460;2023-06-10T02:36:14;96167.59;;;14.24;79.21
47556;BME280;33291;46.222;26.460;2023-06-10T02:38:41;96174.00;;;14.21;79.03
47556;BME280;33291;46.222;26.460;2023-06-10T02:41:07;96170.44;;;14.14;78.96
47556;BME280;33291;46.222;26.460;2023-06-10T02:43:32;96178.47;;;14.12;79.32
47556;BME280;33291;46.222;26.460;2023-06-10T02:45:58;96170.63;;;14.04;79.35
47556;BME280;33291;46.222;26.460;2023-06-10T02:48:24;96177.31;;;14.07;79.42
47556;BME280;33291;46.222;26.460;2023-06-10T02:50:50;96171.78;;;14.01;79.56
47556;BME280;33291;46.222;26.460;2023-06-10T02:53:15;96182.56;;;14.07;79.40
47556;BME280;33291;46.222;26.460;2023-06-10T02:55:41;96177.97;;;14.09;79.17
47556;BME280;33291;46.222;26.460;2023-06-10T02:58:06;96179.44;;;14.11;79.25
47556;BME280;33291;46.222;26.460;2023-06-10T03:00:32;96188.78;;;14.14;79.43
47556;BME280;33291;46.222;26.460;2023-06-10T03:02:58;96193.84;;;14.15;79.42
47556;BME280;33291;46.222;26.460;2023-06-10T03:05:28;96177.16;;;14.08;79.71
47556;BME280;33291;46.222;26.460;2023-06-10T03:07:53;96176.34;;;14.08;79.89
47556;BME280;33291;46.222;26.460;2023-06-10T03:10:19;96188.44;;;14.09;79.93
47556;BME280;33291;46.222;26.460;2023-06-10T03:12:44;96189.94;;;14.03;80.15
47556;BME280;33291;46.222;26.460;2023-06-10T03:15:10;96182.25;;;14.01;80.42
47556;BME280;33291;46.222;26.460;2023-06-10T03:17:35;96197.94;;;14.10;80.27
47556;BME280;33291;46.222;26.460;2023-06-10T03:20:01;96185.84;;;14.00;80.45
47556;BME280;33291;46.222;26.460;2023-06-10T03:22:28;96183.06;;;14.02;80.45
47556;BME280;33291;46.222;26.460;2023-06-10T03:24:53;96178.00;;;14.00;80.54
47556;BME280;33291;46.222;26.460;2023-06-10T03:27:20;96183.88;;;14.02;80.67
47556;BME280;33291;46.222;26.460;2023-06-10T03:29:45;96189.63;;;14.06;80.80
47556;BME280;33291;46.222;26.460;2023-06-10T03:32:11;96188.78;;;14.06;80.94
47556;BME280;33291;46.222;26.460;2023-06-10T03:34:36;96187.47;;;14.10;80.85
47556;BME280;33291;46.222;26.460;2023-06-10T03:37:02;96192.38;;;14.13;80.78
47556;BME280;33291;46.222;26.460;2023-06-10T03:39:28;96194.19;;;14.12;81.48
47556;BME280;33291;46.222;26.460;2023-06-10T03:41:54;96188.94;;;14.12;81.27
47556;BME280;33291;46.222;26.460;2023-06-10T03:44:21;96184.50;;;14.13;81.16
47556;BME280;33291;46.222;26.460;2023-06-10T03:46:46;96185.81;;;14.17;80.96
47556;BME280;33291;46.222;26.460;2023-06-10T03:49:12;96191.84;;;14.17;81.10
47556;BME280;33291;46.222;26.460;2023-06-10T03:51:38;96176.66;;;14.13;81.37
47556;BME280;33291;46.222;26.460;2023-06-10T03:54:04;96177.97;;;14.09;81.49
47556;BME280;33291;46.222;26.460;2023-06-10T03:56:29;96197.56;;;14.21;81.63
47556;BME280;33291;46.222;26.460;2023-06-10T03:58:55;96189.53;;;14.22;81.63
47556;BME280;33291;46.222;26.460;2023-06-10T04:01:21;96194.47;;;14.26;81.27
47556;BME280;33291;46.222;26.460;2023-06-10T04:03:47;96195.56;;;14.31;81.35
47556;BME280;33291;46.222;26.460;2023-06-10T04:06:14;96198.84;;;14.33;81.65
47556;BME280;33291;46.222;26.460;2023-06-10T04:08:41;96199.31;;;14.37;81.55
47556;BME280;33291;46.222;26.460;2023-06-10T04:11:06;96185.25;;;14.30;81.70
47556;BME280;33291;46.222;26.460;2023-06-10T04:13:32;96201.78;;;14.38;81.38
47556;BME280;33291;46.222;26.460;2023-06-10T04:15:57;96197.34;;;14.39;81.46
47556;BME280;33291;46.222;26.460;2023-06-10T04:18:23;96197.16;;;14.40;81.63
47556;BME280;33291;46.222;26.460;2023-06-10T04:20:48;96194.22;;;14.44;81.59
47556;BME280;33291;46.222;26.460;2023-06-10T04:23:14;96206.50;;;14.43;82.03
47556;BME280;33291;46.222;26.460;2023-06-10T04:25:39;96200.78;;;14.39;82.29
47556;BME280;33291;46.222;26.460;2023-06-10T04:28:04;96192.94;;;14.39;82.57
47556;BME280;33291;46.222;26.460;2023-06-10T04:30:30;96195.34;;;14.49;82.76
47556;BME280;33291;46.222;26.460;2023-06-10T04:32:56;96196.63;;;14.53;82.70
47556;BME280;33291;46.222;26.460;2023-06-10T04:35:22;96195.16;;;14.59;82.81
47556;BME280;33291;46.222;26.460;2023-06-10T04:37:47;96196.44;;;14.63;83.58
47556;BME280;33291;46.222;26.460;2023-06-10T04:40:13;96196.94;;;14.67;83.18
47556;BME280;33291;46.222;26.460;2023-06-10T04:42:39;96191.34;;;14.70;82.08
47556;BME280;33291;46.222;26.460;2023-06-10T04:45:05;96193.56;;;14.81;81.88
47556;BME280;33291;46.222;26.460;2023-06-10T04:47:31;96196.34;;;14.88;81.25
47556;BME280;33291;46.222;26.460;2023-06-10T04:50:00;96194.28;;;14.98;81.13
47556;BME280;33291;46.222;26.460;2023-06-10T04:52:26;96192.78;;;15.04;81.23
47556;BME280;33291;46.222;26.460;2023-06-10T04:54:51;96184.50;;;15.15;81.02
47556;BME280;33291;46.222;26.460;2023-06-10T04:57:17;96195.94;;;15.22;81.21
47556;BME280;33291;46.222;26.460;2023-06-10T04:59:42;96188.38;;;15.27;81.23
47556;BME280;33291;46.222;26.460;2023-06-10T05:02:08;96198.16;;;15.34;81.50
47556;BME280;33291;46.222;26.460;2023-06-10T05:04:33;96180.59;;;15.34;81.22
47556;BME280;33291;46.222;26.460;2023-06-10T05:06:59;96193.28;;;15.45;81.37
47556;BME280;33291;46.222;26.460;2023-06-10T05:09:24;96191.94;;;15.50;81.36
47556;BME280;33291;46.222;26.460;2023-06-10T05:11:51;96183.88;;;15.51;81.52
47556;BME280;33291;46.222;26.460;2023-06-10T05:14:16;96172.22;;;15.54;81.41
47556;BME280;33291;46.222;26.460;2023-06-10T05:16:44;96180.69;;;15.64;81.57
47556;BME280;33291;46.222;26.460;2023-06-10T05:19:09;96182.94;;;15.67;81.69
47556;BME280;33291;46.222;26.460;2023-06-10T05:21:35;96181.22;;;15.74;81.86
47556;BME280;33291;46.222;26.460;2023-06-10T05:24:00;96191.06;;;15.80;81.77
47556;BME280;33291;46.222;26.460;2023-06-10T05:26:26;96174.59;;;15.87;81.49
47556;BME280;33291;46.222;26.460;2023-06-10T05:28:51;96186.63;;;15.96;80.91
47556;BME280;33291;46.222;26.460;2023-06-10T05:31:17;96189.34;;;16.03;80.54
47556;BME280;33291;46.222;26.460;2023-06-10T05:33:43;96184.09;;;16.17;80.21
47556;BME280;33291;46.222;26.460;2023-06-10T05:36:08;96187.44;;;16.26;79.85
47556;BME280;33291;46.222;26.460;2023-06-10T05:38:34;96182.09;;;16.34;79.23
47556;BME280;33291;46.222;26.460;2023-06-10T05:41:00;96185.88;;;16.47;78.30
47556;BME280;33291;46.222;26.460;2023-06-10T05:43:25;96181.34;;;16.56;78.09
47556;BME280;33291;46.222;26.460;2023-06-10T05:45:50;96181.88;;;16.66;77.67
47556;BME280;33291;46.222;26.460;2023-06-10T05:48:16;96182.41;;;16.76;77.84
47556;BME280;33291;46.222;26.460;2023-06-10T05:50:41;96172.22;;;16.88;77.21
47556;BME280;33291;46.222;26.460;2023-06-10T05:53:10;96177.81;;;17.00;76.53
47556;BME280;33291;46.222;26.460;2023-06-10T05:55:44;96151.88;;;16.97;76.54
47556;BME280;33291;46.222;26.460;2023-06-10T05:58:10;96152.00;;;17.10;76.30
47556;BME280;33291;46.222;26.460;2023-06-10T06:00:40;96171.03;;;17.34;76.95
47556;BME280;33291;46.222;26.460;2023-06-10T06:03:07;96172.94;;;17.40;76.88
47556;BME280;33291;46.222;26.460;2023-06-10T06:05:36;96162.81;;;17.44;77.02
47556;BME280;33291;46.222;26.460;2023-06-10T06:08:07;96156.56;;;17.45;77.32
47556;BME280;33291;46.222;26.460;2023-06-10T06:10:33;96168.19;;;17.57;77.16
47556;BME280;33291;46.222;26.460;2023-06-10T06:13:00;96138.53;;;17.48;76.91
47556;BME280;33291;46.222;26.460;2023-06-10T06:15:26;96163.44;;;17.74;76.81
47556;BME280;33291;46.222;26.460;2023-06-10T06:17:51;96164.19;;;17.89;76.13
47556;BME280;33291;46.222;26.460;2023-06-10T06:20:22;96162.84;;;18.00;75.52
47556;BME280;33291;46.222;26.460;2023-06-10T06:22:47;96149.31;;;18.10;74.68
47556;BME280;33291;46.222;26.460;2023-06-10T06:25:13;96153.03;;;18.22;74.12
47556;BME280;33291;46.222;26.460;2023-06-10T06:27:39;96154.09;;;18.35;73.09
47556;BME280;33291;46.222;26.460;2023-06-10T06:30:05;96152.13;;;18.50;72.81
47556;BME280;33291;46.222;26.460;2023-06-10T06:32:31;96130.19;;;18.43;72.62
47556;BME280;33291;46.222;26.460;2023-06-10T06:34:56;96155.66;;;18.71;72.37
47556;BME280;33291;46.222;26.460;2023-06-10T06:37:23;96148.16;;;18.81;71.27
47556;BME280;33291;46.222;26.460;2023-06-10T06:39:52;96141.72;;;18.90;70.47
47556;BME280;33291;46.222;26.460;2023-06-10T06:42:18;96139.31;;;19.09;71.02
47556;BME280;33291;46.222;26.460;2023-06-10T06:44:44;96137.28;;;19.17;71.23
47556;BME280;33291;46.222;26.460;2023-06-10T06:47:10;96140.13;;;19.29;70.90
47556;BME280;33291;46.222;26.460;2023-06-10T06:49:35;96132.44;;;19.41;70.25
47556;BME280;33291;46.222;26.460;2023-06-10T06:52:02;96141.38;;;19.53;69.78
47556;BME280;33291;46.222;26.460;2023-06-10T06:54:27;96124.72;;;19.66;66.13
47556;BME280;33291;46.222;26.460;2023-06-10T06:56:53;96131.41;;;19.89;63.25
47556;BME280;33291;46.222;26.460;2023-06-10T06:59:18;96132.78;;;20.05;64.11
47556;BME280;33291;46.222;26.460;2023-06-10T07:01:47;96125.66;;;20.12;64.70
47556;BME280;33291;46.222;26.460;2023-06-10T07:04:14;96131.94;;;20.18;63.36
47556;BME280;33291;46.222;26.460;2023-06-10T07:06:40;96139.47;;;20.21;62.70
47556;BME280;33291;46.222;26.460;2023-06-10T07:13:09;96137.50;;;20.55;61.65
47556;BME280;33291;46.222;26.460;2023-06-10T07:15:35;96127.88;;;20.67;59.83
47556;BME280;33291;46.222;26.460;2023-06-10T07:18:00;96126.81;;;20.82;59.71
47556;BME280;33291;46.222;26.460;2023-06-10T07:20:26;96118.22;;;20.86;59.83
47556;BME280;33291;46.222;26.460;2023-06-10T07:22:51;96136.72;;;20.93;59.52
47556;BME280;33291;46.222;26.460;2023-06-10T07:25:17;96120.41;;;20.96;59.28
47556;BME280;33291;46.222;26.460;2023-06-10T07:27:42;96130.47;;;21.12;58.98
47556;BME280;33291;46.222;26.460;2023-06-10T07:30:08;96134.69;;;21.20;56.80
47556;BME280;33291;46.222;26.460;2023-06-10T07:32:34;96137.91;;;21.29;55.80
47556;BME280;33291;46.222;26.460;2023-06-10T07:34:59;96126.59;;;21.40;54.91
47556;BME280;33291;46.222;26.460;2023-06-10T07:37:25;96133.88;;;21.52;53.94
47556;BME280;33291;46.222;26.460;2023-06-10T07:39:50;96124.22;;;21.57;52.85
47556;BME280;33291;46.222;26.460;2023-06-10T07:42:16;96121.53;;;21.64;51.98
47556;BME280;33291;46.222;26.460;2023-06-10T07:44:42;96119.22;;;21.74;48.59
47556;BME280;33291;46.222;26.460;2023-06-10T07:47:08;96115.38;;;21.89;49.94
47556;BME280;33291;46.222;26.460;2023-06-10T07:49:33;96118.38;;;21.92;50.25
47556;BME280;33291;46.222;26.460;2023-06-10T07:51:58;96117.09;;;22.02;51.30
47556;BME280;33291;46.222;26.460;2023-06-10T07:54:24;96112.28;;;22.10;51.50
47556;BME280;33291;46.222;26.460;2023-06-10T07:56:50;96114.13;;;22.28;49.76
47556;BME280;33291;46.222;26.460;2023-06-10T07:59:18;96117.31;;;22.37;47.98
47556;BME280;33291;46.222;26.460;2023-06-10T08:01:43;96126.72;;;22.51;48.19
47556;BME280;33291;46.222;26.460;2023-06-10T08:04:09;96115.97;;;22.46;47.77
47556;BME280;33291;46.222;26.460;2023-06-10T08:06:34;96123.28;;;22.51;47.76
47556;BME280;33291;46.222;26.460;2023-06-10T08:09:02;96115.88;;;22.53;47.68
47556;BME280;33291;46.222;26.460;2023-06-10T08:11:27;96119.59;;;22.52;46.59
47556;BME280;33291;46.222;26.460;2023-06-10T08:13:54;96121.19;;;22.53;46.11
47556;BME280;33291;46.222;26.460;2023-06-10T08:16:20;96112.22;;;22.54;46.39
47556;BME280;33291;46.222;26.460;2023-06-10T08:18:45;96110.97;;;22.57;47.08
47556;BME280;33291;46.222;26.460;2023-06-10T08:21:11;96102.66;;;22.65;47.66
47556;BME280;33291;46.222;26.460;2023-06-10T08:23:36;96112.16;;;22.73;46.48
47556;BME280;33291;46.222;26.460;2023-06-10T08:26:02;96107.00;;;22.78;47.29
47556;BME280;33291;46.222;26.460;2023-06-10T08:28:27;96112.78;;;22.86;46.53
47556;BME280;33291;46.222;26.460;2023-06-10T08:30:53;96108.06;;;22.88;45.43
47556;BME280;33291;46.222;26.460;2023-06-10T08:33:18;96106.56;;;22.93;45.69
47556;BME280;33291;46.222;26.460;2023-06-10T08:35:44;96105.69;;;22.99;45.65
47556;BME280;33291;46.222;26.460;2023-06-10T08:38:09;96100.84;;;23.07;45.81
47556;BME280;33291;46.222;26.460;2023-06-10T08:40:35;96091.75;;;23.15;45.95
47556;BME280;33291;46.222;26.460;2023-06-10T08:43:06;96102.63;;;23.26;46.28
47556;BME280;33291;46.222;26.460;2023-06-10T08:45:35;96097.56;;;23.36;47.56
47556;BME280;33291;46.222;26.460;2023-06-10T08:48:02;96099.19;;;23.49;46.83
47556;BME280;33291;46.222;26.460;2023-06-10T08:50:30;96103.38;;;23.56;45.17
47556;BME280;33291;46.222;26.460;2023-06-10T08:52:57;96093.88;;;23.60;44.57
47556;BME280;33291;46.222;26.460;2023-06-10T08:57:59;96090.28;;;23.67;44.19
47556;BME280;33291;46.222;26.460;2023-06-10T09:00:25;96091.78;;;23.74;43.86
47556;BME280;33291;46.222;26.460;2023-06-10T09:02:51;96098.59;;;23.82;44.03
47556;BME280;33291;46.222;26.460;2023-06-10T09:05:17;96098.28;;;23.90;43.98
47556;BME280;33291;46.222;26.460;2023-06-10T09:07:43;96093.31;;;23.94;44.06
47556;BME280;33291;46.222;26.460;2023-06-10T09:10:10;96100.72;;;24.04;44.39
47556;BME280;33291;46.222;26.460;2023-06-10T09:12:36;96093.38;;;24.11;43.86
47556;BME280;33291;46.222;26.460;2023-06-10T09:15:03;96096.75;;;24.06;42.73
47556;BME280;33291;46.222;26.460;2023-06-10T09:17:29;96096.06;;;24.11;41.28
47556;BME280;33291;46.222;26.460;2023-06-10T09:19:55;96091.31;;;24.13;40.83
47556;BME280;33291;46.222;26.460;2023-06-10T09:22:22;96092.34;;;24.12;40.09
47556;BME280;33291;46.222;26.460;2023-06-10T09:24:48;96085.06;;;24.07;40.07
47556;BME280;33291;46.222;26.460;2023-06-10T09:27:14;96078.38;;;24.05;40.61
47556;BME280;33291;46.222;26.460;2023-06-10T09:29:54;96081.16;;;24.10;40.26
47556;BME280;33291;46.222;26.460;2023-06-10T09:32:19;96077.78;;;24.15;40.95
47556;BME280;33291;46.222;26.460;2023-06-10T09:34:46;96073.03;;;24.17;40.81
47556;BME280;33291;46.222;26.460;2023-06-10T09:37:12;96075.69;;;24.17;41.35
47556;BME280;33291;46.222;26.460;2023-06-10T09:39:39;96067.81;;;24.22;41.51
47556;BME280;33291;46.222;26.460;2023-06-10T09:42:18;96069.88;;;24.32;41.42
47556;BME280;33291;46.222;26.460;2023-06-10T09:44:51;96046.38;;;24.28;41.92
47556;BME280;33291;46.222;26.460;2023-06-10T09:47:21;96059.06;;;24.38;41.51
47556;BME280;33291;46.222;26.460;2023-06-10T09:49:50;96063.91;;;24.41;41.57
47556;BME280;33291;46.222;26.460;2023-06-10T09:52:22;96062.06;;;24.42;41.30
47556;BME280;33291;46.222;26.460;2023-06-10T09:54:49;96063.91;;;24.41;41.14
47556;BME280;33291;46.222;26.460;2023-06-10T09:57:16;96057.72;;;24.36;40.92
47556;BME280;33291;46.222;26.460;2023-06-10T09:59:42;96065.09;;;24.34;40.64
47556;BME280;33291;46.222;26.460;2023-06-10T10:02:13;96062.81;;;24.25;40.63
47556;BME280;33291;46.222;26.460;2023-06-10T10:04:39;96060.25;;;24.30;40.75
47556;BME280;33291;46.222;26.460;2023-06-10T10:07:05;96038.31;;;24.23;40.30
47556;BME280;33291;46.222;26.460;2023-06-10T10:09:32;96062.06;;;24.42;40.06
47556;BME280;33291;46.222;26.460;2023-06-10T10:11:59;96059.97;;;24.44;39.76
47556;BME280;33291;46.222;26.460;2023-06-10T10:14:28;96058.47;;;24.48;39.96
47556;BME280;33291;46.222;26.460;2023-06-10T10:16:56;96056.94;;;24.52;38.48
47556;BME280;33291;46.222;26.460;2023-06-10T10:19:28;96054.38;;;24.57;38.90
47556;BME280;33291;46.222;26.460;2023-06-10T10:22:01;96052.50;;;24.70;37.59
47556;BME280;33291;46.222;26.460;2023-06-10T10:24:36;96044.19;;;24.66;37.62
47556;BME280;33291;46.222;26.460;2023-06-10T10:27:10;96043.88;;;24.79;37.63
47556;BME280;33291;46.222;26.460;2023-06-10T10:29:38;96036.75;;;24.85;36.98
47556;BME280;33291;46.222;26.460;2023-06-10T10:32:06;96035.56;;;24.93;38.24
47556;BME280;33291;46.222;26.460;2023-06-10T10:35:07;96044.53;;;25.04;38.89
47556;BME280;33291;46.222;26.460;2023-06-10T10:37:33;96038.16;;;25.05;39.57
47556;BME280;33291;46.222;26.460;2023-06-10T10:39:59;96024.34;;;25.08;39.83
47556;BME280;33291;46.222;26.460;2023-06-10T10:42:26;96021.53;;;25.14;39.98
47556;BME280;33291;46.222;26.460;2023-06-10T10:44:52;96006.25;;;25.10;40.13
47556;BME280;33291;46.222;26.460;2023-06-10T10:47:21;96021.84;;;25.35;39.73
47556;BME280;33291;46.222;26.460;2023-06-10T10:49:48;96028.06;;;25.41;39.89
47556;BME280;33291;46.222;26.460;2023-06-10T10:52:16;96018.88;;;25.31;39.22
47556;BME280;33291;46.222;26.460;2023-06-10T10:54:46;96018.63;;;25.16;39.72
47556;BME280;33291;46.222;26.460;2023-06-10T10:57:20;96025.31;;;25.18;40.38
47556;BME280;33291;46.222;26.460;2023-06-10T11:05:02;96023.78;;;24.89;40.98
47556;BME280;33291;46.222;26.460;2023-06-10T11:07:30;96026.94;;;24.86;41.34
47556;BME280;33291;46.222;26.460;2023-06-10T11:10:06;96023.38;;;24.80;41.73
47556;BME280;33291;46.222;26.460;2023-06-10T11:12:41;96020.53;;;24.70;42.23
47556;BME280;33291;46.222;26.460;2023-06-10T11:15:08;96021.00;;;24.67;42.13
47556;BME280;33291;46.222;26.460;2023-06-10T11:17:33;96020.34;;;24.59;42.25
47556;BME280;33291;46.222;26.460;2023-06-10T11:19:59;96022.66;;;24.56;42.57
47556;BME280;33291;46.222;26.460;2023-06-10T11:22:25;96019.69;;;24.52;42.91
47556;BME280;33291;46.222;26.460;2023-06-10T11:24:51;96012.81;;;24.56;43.08
47556;BME280;33291;46.222;26.460;2023-06-10T11:27:23;96007.69;;;24.67;42.94
47556;BME280;33291;46.222;26.460;2023-06-10T11:30:19;96012.34;;;24.59;42.24
47556;BME280;33291;46.222;26.460;2023-06-10T11:32:50;96001.53;;;24.49;42.12
47556;BME280;33291;46.222;26.460;2023-06-10T11:35:18;96000.47;;;24.50;42.54
47556;BME280;33291;46.222;26.460;2023-06-10T11:37:43;96001.13;;;24.57;41.98
47556;BME280;33291;46.222;26.460;2023-06-10T11:40:10;95992.44;;;24.62;41.90
47556;BME280;33291;46.222;26.460;2023-06-10T11:42:40;95997.94;;;24.72;42.15
47556;BME280;33291;46.222;26.460;2023-06-10T11:45:06;95996.63;;;24.75;41.83
47556;BME280;33291;46.222;26.460;2023-06-10T11:47:33;95990.19;;;24.71;41.27
47556;BME280;33291;46.222;26.460;2023-06-10T11:49:59;95986.94;;;24.69;41.56
47556;BME280;33291;46.222;26.460;2023-06-10T11:52:29;95987.44;;;24.65;40.88
47556;BME280;33291;46.222;26.460;2023-06-10T11:54:55;95999.94;;;24.65;40.51
47556;BME280;33291;46.222;26.460;2023-06-10T11:57:20;95979.03;;;24.57;39.63
47556;BME280;33291;46.222;26.460;2023-06-10T11:59:46;95986.19;;;24.56;40.22
47556;BME280;33291;46.222;26.460;2023-06-10T12:02:15;95987.25;;;24.55;39.47
47556;BME280;33291;46.222;26.460;2023-06-10T12:04:41;95979.09;;;24.45;39.86
47556;BME280;33291;46.222;26.460;2023-06-10T12:07:07;95983.75;;;24.55;39.98
47556;BME280;33291;46.222;26.460;2023-06-10T12:09:32;95976.22;;;24.63;40.12
47556;BME280;33291;46.222;26.460;2023-06-10T12:12:07;95968.47;;;24.79;39.29
47556;BME280;33291;46.222;26.460;2023-06-10T12:17:35;95980.66;;;25.09;39.14
47556;BME280;33291;46.222;26.460;2023-06-10T12:20:04;95969.84;;;24.98;38.45
47556;BME280;33291;46.222;26.460;2023-06-10T12:22:37;95973.81;;;24.96;38.33
47556;BME280;33291;46.222;26.460;2023-06-10T12:25:05;95985.19;;;24.91;38.54
47556;BME280;33291;46.222;26.460;2023-06-10T12:27:32;95980.19;;;24.78;39.03
47556;BME280;33291;46.222;26.460;2023-06-10T12:29:59;95985.34;;;24.68;38.99
47556;BME280;33291;46.222;26.460;2023-06-10T12:32:36;95988.63;;;24.58;41.60
47556;BME280;33291;46.222;26.460;2023-06-10T12:35:03;95981.25;;;24.48;41.38
47556;BME280;33291;46.222;26.460;2023-06-10T12:37:30;95969.75;;;24.30;40.99
47556;BME280;33291;46.222;26.460;2023-06-10T12:39:55;95977.84;;;24.36;41.30
47556;BME280;33291;46.222;26.460;2023-06-10T12:42:25;95976.16;;;24.29;41.35
47556;BME280;33291;46.222;26.460;2023-06-10T12:44:53;95964.03;;;24.22;41.39
47556;BME280;33291;46.222;26.460;2023-06-10T12:47:19;95961.69;;;24.25;41.07
47556;BME280;33291;46.222;26.460;2023-06-10T12:49:45;95967.09;;;24.30;41.87
47556;BME280;33291;46.222;26.460;2023-06-10T12:52:10;95963.16;;;24.33;42.68
47556;BME280;33291;46.222;26.460;2023-06-10T12:54:36;95970.44;;;24.38;42.73
47556;BME280;33291;46.222;26.460;2023-06-10T12:57:02;95967.84;;;24.43;39.84
47556;BME280;33291;46.222;26.460;2023-06-10T12:59:28;95967.84;;;24.43;40.09
47556;BME280;33291;46.222;26.460;2023-06-10T13:01:54;95968.81;;;24.37;40.06
47556;BME280;33291;46.222;26.460;2023-06-10T13:04:21;95969.94;;;24.41;41.08
47556;BME280;33291;46.222;26.460;2023-06-10T13:06:47;95967.53;;;24.39;40.17
47556;BME280;33291;46.222;26.460;2023-06-10T13:09:13;95962.38;;;24.33;40.19
47556;BME280;33291;46.222;26.460;2023-06-10T13:11:39;95966.72;;;24.39;40.68
47556;BME280;33291;46.222;26.460;2023-06-10T13:14:05;95971.56;;;24.42;40.99